Airfield :
LOGIN :

Register | Disclaimer

   EN    FR    IT 

 










Legend :    VFR   Marginal VFR   IFR   Intensive IFR   Very Intensive IFR
Visi :
Ceiling :
>= 8 km
>= 3000ft
5 to 8 km
1000 to 3000 ft
1500m to 5 km
500 to 1000 ft
800 to 1500m
200 to 500 ft
< 800m
< 200 ft
Symbols :   Thunderstorms  Fog  Heavy snow  Heavy precipitations  Wind > 20 kt
SIGMETs :     Misc.  Thunderstorms  Icing  Turbulence  Mountain Waves  Volcanic Ashes






- Airport Elevation : 1895 ft


LSMM - Meiringen

CURRENT METAR :
  • 011150Z AUTO 03011KT 360V070 9999NDV FEW030 OVC039 03/00 Q1019 RMK

EXPIRED METARs :
  • 011120Z AUTO 03011KT 350V060 9999NDV BKN028 OVC042 03/00 Q1019 RMK
  • 011050Z AUTO 04011KT 360V070 9999NDV SCT024 BKN030 OVC042 03/01 Q1019 RMK
  • 011020Z AUTO 04011KT 360V080 9999NDV FEW022 SCT027 OVC032 03/00 Q1019 RMK
  • 010950Z AUTO 04010KT 330V080 9999NDV FEW020 SCT023 OVC028 03/01 Q1019 RMK
  • 010920Z AUTO 05009KT 350V080 9999NDV FEW019 BKN026 OVC042 03/01 Q1019 RMK

Expired Forecast.



MET'MAP, your aeronautical weather chart ! - Copyright ORBIFLY December 2007 - Disclaimer

ORBIFLY MET'MAP TEAM :

Programming & Development : Alexandra Zaïnal
Original concept : Baudouin d'Aumeries
Technical & hardware support : Manuel Goepfert
Assistance : Marc-Olivier Méhu




SOURCES & CREDITS :

   NOAA